Terminal Aerodrome Forecast
Issued by NWS Goodland, KS

Home | Current Version | Previous Version | Graphics & Text | Print | Product List | Glossary On
Versions: 1 2 3 4 5 6 7 8 9 10 11 12 13 14 15 16 17 18 19 20 21 22 23 24 25
358
FTUS43 KGLD 251224 AAA
TAFGLD
TAF AMD
KGLD 251224Z 2512/2612 36011KT P6SM SHRA VCTS OVC006CB
      TEMPO 2512/2516 1 1/2SM BR
     FM251800 02010KT P6SM VCSH OVC008
     FM260500 35008KT P6SM OVC008=

USA.gov is the U.S. government's official web portal to all federal, state and local government web resources and services.